sensor_id;sensor_type;location;lat;lon;timestamp;temperature;humidity
52725;DHT22;38621;52.830;6.914;2022-12-10T00:01:16;-1.30;99.90
52725;DHT22;38621;52.830;6.914;2022-12-10T00:03:43;-1.40;99.90
52725;DHT22;38621;52.830;6.914;2022-12-10T00:06:14;-1.40;99.90
52725;DHT22;38621;52.830;6.914;2022-12-10T00:08:41;-1.50;99.90
52725;DHT22;38621;52.830;6.914;2022-12-10T00:11:09;-1.40;99.90
52725;DHT22;38621;52.830;6.914;2022-12-10T00:13:36;-1.50;99.90
52725;DHT22;38621;52.830;6.914;2022-12-10T00:16:03;-1.50;99.90
52725;DHT22;38621;52.830;6.914;2022-12-10T00:18:29;-1.50;99.90
52725;DHT22;38621;52.830;6.914;2022-12-10T00:20:55;-1.50;99.90
52725;DHT22;38621;52.830;6.914;2022-12-10T00:23:21;-1.60;99.90
52725;DHT22;38621;52.830;6.914;2022-12-10T00:25:49;-1.90;99.90
52725;DHT22;38621;52.830;6.914;2022-12-10T00:28:14;-1.70;99.90
52725;DHT22;38621;52.830;6.914;2022-12-10T00:30:40;-1.70;99.90
52725;DHT22;38621;52.830;6.914;2022-12-10T00:33:06;-1.70;99.90
52725;DHT22;38621;52.830;6.914;2022-12-10T00:35:35;-1.80;99.90
52725;DHT22;38621;52.830;6.914;2022-12-10T00:38:01;-1.70;99.90
52725;DHT22;38621;52.830;6.914;2022-12-10T00:40:26;-1.70;99.90
52725;DHT22;38621;52.830;6.914;2022-12-10T00:42:52;-1.70;99.90
52725;DHT22;38621;52.830;6.914;2022-12-10T00:45:18;-1.60;99.90
52725;DHT22;38621;52.830;6.914;2022-12-10T00:47:43;-1.60;99.90
52725;DHT22;38621;52.830;6.914;2022-12-10T00:50:09;-1.40;99.90
52725;DHT22;38621;52.830;6.914;2022-12-10T00:52:35;-1.00;99.90
52725;DHT22;38621;52.830;6.914;2022-12-10T00:55:00;-1.50;99.90
52725;DHT22;38621;52.830;6.914;2022-12-10T00:57:26;-1.50;99.90
52725;DHT22;38621;52.830;6.914;2022-12-10T00:59:52;-1.50;99.90
52725;DHT22;38621;52.830;6.914;2022-12-10T01:02:17;-1.50;99.90
52725;DHT22;38621;52.830;6.914;2022-12-10T01:04:43;-1.50;99.90
52725;DHT22;38621;52.830;6.914;2022-12-10T01:07:08;-1.40;99.90
52725;DHT22;38621;52.830;6.914;2022-12-10T01:09:35;-1.40;99.90
52725;DHT22;38621;52.830;6.914;2022-12-10T01:12:02;-1.40;99.90
52725;DHT22;38621;52.830;6.914;2022-12-10T01:14:30;-1.40;99.90
52725;DHT22;38621;52.830;6.914;2022-12-10T01:16:59;-1.10;99.90
52725;DHT22;38621;52.830;6.914;2022-12-10T01:19:25;-1.30;99.90
52725;DHT22;38621;52.830;6.914;2022-12-10T01:21:55;-1.10;99.90
52725;DHT22;38621;52.830;6.914;2022-12-10T01:24:23;-1.20;99.90
52725;DHT22;38621;52.830;6.914;2022-12-10T01:26:49;-1.20;99.90
52725;DHT22;38621;52.830;6.914;2022-12-10T01:29:15;-2.20;99.90
52725;DHT22;38621;52.830;6.914;2022-12-10T01:31:41;-1.20;99.90
52725;DHT22;38621;52.830;6.914;2022-12-10T01:34:09;-1.20;99.90
52725;DHT22;38621;52.830;6.914;2022-12-10T01:36:39;-1.20;99.90
52725;DHT22;38621;52.830;6.914;2022-12-10T01:39:08;-1.20;99.90
52725;DHT22;38621;52.830;6.914;2022-12-10T01:42:00;-1.10;99.90
52725;DHT22;38621;52.830;6.914;2022-12-10T01:46:54;-1.10;99.90
52725;DHT22;38621;52.830;6.914;2022-12-10T01:49:26;-1.10;99.90
52725;DHT22;38621;52.830;6.914;2022-12-10T01:51:54;-1.10;99.90
52725;DHT22;38621;52.830;6.914;2022-12-10T01:54:21;-1.00;99.90
52725;DHT22;38621;52.830;6.914;2022-12-10T01:56:54;-1.00;99.90
52725;DHT22;38621;52.830;6.914;2022-12-10T01:59:22;-1.00;99.90
52725;DHT22;38621;52.830;6.914;2022-12-10T02:02:03;-1.00;99.90
52725;DHT22;38621;52.830;6.914;2022-12-10T02:04:36;-1.00;99.90
52725;DHT22;38621;52.830;6.914;2022-12-10T02:09:43;-0.90;99.90
52725;DHT22;38621;52.830;6.914;2022-12-10T02:12:18;-0.90;99.90
52725;DHT22;38621;52.830;6.914;2022-12-10T02:15:39;-0.90;99.90
52725;DHT22;38621;52.830;6.914;2022-12-10T02:20:32;-0.80;99.90
52725;DHT22;38621;52.830;6.914;2022-12-10T02:23:13;0.40;99.90
52725;DHT22;38621;52.830;6.914;2022-12-10T02:25:57;-0.70;99.90
52725;DHT22;38621;52.830;6.914;2022-12-10T02:28:33;-0.70;99.90
52725;DHT22;38621;52.830;6.914;2022-12-10T02:31:02;-0.70;99.90
52725;DHT22;38621;52.830;6.914;2022-12-10T02:33:29;-0.70;99.90
52725;DHT22;38621;52.830;6.914;2022-12-10T02:35:57;-0.70;99.90
52725;DHT22;38621;52.830;6.914;2022-12-10T02:38:28;-0.80;99.90
52725;DHT22;38621;52.830;6.914;2022-12-10T02:40:59;-0.80;99.90
52725;DHT22;38621;52.830;6.914;2022-12-10T02:43:27;-0.90;99.90
52725;DHT22;38621;52.830;6.914;2022-12-10T02:45:55;-0.90;99.90
52725;DHT22;38621;52.830;6.914;2022-12-10T02:48:22;-0.90;99.90
52725;DHT22;38621;52.830;6.914;2022-12-10T02:50:48;-0.80;99.90
52725;DHT22;38621;52.830;6.914;2022-12-10T02:53:14;-0.90;99.90
52725;DHT22;38621;52.830;6.914;2022-12-10T03:04:01;-0.90;99.90
52725;DHT22;38621;52.830;6.914;2022-12-10T03:06:38;-1.00;99.90
52725;DHT22;38621;52.830;6.914;2022-12-10T03:09:30;-1.00;99.90
52725;DHT22;38621;52.830;6.914;2022-12-10T03:12:02;-1.00;99.90
52725;DHT22;38621;52.830;6.914;2022-12-10T03:14:32;-1.00;99.90
52725;DHT22;38621;52.830;6.914;2022-12-10T03:17:00;-1.00;99.90
52725;DHT22;38621;52.830;6.914;2022-12-10T03:19:37;-1.00;99.90
52725;DHT22;38621;52.830;6.914;2022-12-10T03:22:07;-1.00;99.90
52725;DHT22;38621;52.830;6.914;2022-12-10T03:24:35;-1.10;99.90
52725;DHT22;38621;52.830;6.914;2022-12-10T03:27:02;-1.00;99.90
52725;DHT22;38621;52.830;6.914;2022-12-10T03:29:36;-1.00;99.90
52725;DHT22;38621;52.830;6.914;2022-12-10T03:32:03;-1.00;99.90
52725;DHT22;38621;52.830;6.914;2022-12-10T03:34:29;-1.00;99.90
52725;DHT22;38621;52.830;6.914;2022-12-10T03:36:55;-1.10;99.90
52725;DHT22;38621;52.830;6.914;2022-12-10T03:39:21;-1.20;99.90
52725;DHT22;38621;52.830;6.914;2022-12-10T03:41:47;-1.20;99.90
52725;DHT22;38621;52.830;6.914;2022-12-10T03:44:13;-1.10;99.90
52725;DHT22;38621;52.830;6.914;2022-12-10T03:46:39;-1.20;99.90
52725;DHT22;38621;52.830;6.914;2022-12-10T03:49:06;-1.20;99.90
52725;DHT22;38621;52.830;6.914;2022-12-10T03:51:32;-1.20;99.90
52725;DHT22;38621;52.830;6.914;2022-12-10T03:53:57;-1.30;99.90
52725;DHT22;38621;52.830;6.914;2022-12-10T03:56:23;-1.20;99.90
52725;DHT22;38621;52.830;6.914;2022-12-10T03:58:49;-1.30;99.90
52725;DHT22;38621;52.830;6.914;2022-12-10T04:01:15;-0.90;99.90
52725;DHT22;38621;52.830;6.914;2022-12-10T04:03:42;-1.20;99.90
52725;DHT22;38621;52.830;6.914;2022-12-10T04:06:12;-1.30;99.90
52725;DHT22;38621;52.830;6.914;2022-12-10T04:08:38;-1.30;99.90
52725;DHT22;38621;52.830;6.914;2022-12-10T04:11:05;-1.30;99.90
52725;DHT22;38621;52.830;6.914;2022-12-10T04:13:33;-1.30;99.90
52725;DHT22;38621;52.830;6.914;2022-12-10T04:16:17;-1.30;99.90
52725;DHT22;38621;52.830;6.914;2022-12-10T04:18:53;-1.40;99.90
52725;DHT22;38621;52.830;6.914;2022-12-10T04:21:19;-1.40;99.90
52725;DHT22;38621;52.830;6.914;2022-12-10T04:24:04;-1.40;99.90
52725;DHT22;38621;52.830;6.914;2022-12-10T04:26:48;-1.40;99.90
52725;DHT22;38621;52.830;6.914;2022-12-10T04:29:19;-1.40;99.90
52725;DHT22;38621;52.830;6.914;2022-12-10T04:31:45;-1.40;99.90
52725;DHT22;38621;52.830;6.914;2022-12-10T04:34:10;-0.40;99.90
52725;DHT22;38621;52.830;6.914;2022-12-10T04:36:36;-1.40;99.90
52725;DHT22;38621;52.830;6.914;2022-12-10T04:39:03;-1.50;99.90
52725;DHT22;38621;52.830;6.914;2022-12-10T04:41:28;-1.50;99.90
52725;DHT22;38621;52.830;6.914;2022-12-10T04:43:54;-1.50;99.90
52725;DHT22;38621;52.830;6.914;2022-12-10T04:46:20;-1.50;99.90
52725;DHT22;38621;52.830;6.914;2022-12-10T04:48:46;-1.50;99.90
52725;DHT22;38621;52.830;6.914;2022-12-10T04:51:12;-1.50;99.90
52725;DHT22;38621;52.830;6.914;2022-12-10T04:53:37;-1.50;99.90
52725;DHT22;38621;52.830;6.914;2022-12-10T04:56:03;-1.50;99.90
52725;DHT22;38621;52.830;6.914;2022-12-10T04:58:31;-1.60;99.90
52725;DHT22;38621;52.830;6.914;2022-12-10T05:01:08;-1.60;99.90
52725;DHT22;38621;52.830;6.914;2022-12-10T05:03:35;-1.70;99.90
52725;DHT22;38621;52.830;6.914;2022-12-10T05:06:02;-1.70;99.90
52725;DHT22;38621;52.830;6.914;2022-12-10T05:08:28;-1.70;99.90
52725;DHT22;38621;52.830;6.914;2022-12-10T05:10:54;-1.70;99.90
52725;DHT22;38621;52.830;6.914;2022-12-10T05:13:20;-1.70;99.90
52725;DHT22;38621;52.830;6.914;2022-12-10T05:15:46;-1.70;99.90
52725;DHT22;38621;52.830;6.914;2022-12-10T05:18:11;-1.70;99.90
52725;DHT22;38621;52.830;6.914;2022-12-10T05:20:37;-1.70;99.90
52725;DHT22;38621;52.830;6.914;2022-12-10T05:23:03;-1.60;99.90
52725;DHT22;38621;52.830;6.914;2022-12-10T05:25:47;-1.60;99.90
52725;DHT22;38621;52.830;6.914;2022-12-10T05:28:20;-1.60;99.90
52725;DHT22;38621;52.830;6.914;2022-12-10T05:30:46;-1.60;99.90
52725;DHT22;38621;52.830;6.914;2022-12-10T05:33:12;-1.70;99.90
52725;DHT22;38621;52.830;6.914;2022-12-10T05:35:38;-1.70;99.90
52725;DHT22;38621;52.830;6.914;2022-12-10T05:38:03;-1.70;99.90
52725;DHT22;38621;52.830;6.914;2022-12-10T05:40:34;-1.70;99.90
52725;DHT22;38621;52.830;6.914;2022-12-10T05:42:59;-1.70;99.90
52725;DHT22;38621;52.830;6.914;2022-12-10T05:45:25;-1.80;99.90
52725;DHT22;38621;52.830;6.914;2022-12-10T05:47:50;-1.80;99.90
52725;DHT22;38621;52.830;6.914;2022-12-10T05:50:16;-1.80;99.90
52725;DHT22;38621;52.830;6.914;2022-12-10T05:52:42;-1.80;99.90
52725;DHT22;38621;52.830;6.914;2022-12-10T05:55:08;-1.80;99.90
52725;DHT22;38621;52.830;6.914;2022-12-10T05:57:36;-1.80;99.90
52725;DHT22;38621;52.830;6.914;2022-12-10T06:00:03;-1.80;99.90
52725;DHT22;38621;52.830;6.914;2022-12-10T06:02:32;-1.80;99.90
52725;DHT22;38621;52.830;6.914;2022-12-10T06:04:58;-1.80;99.90
52725;DHT22;38621;52.830;6.914;2022-12-10T06:07:24;-1.80;99.90
52725;DHT22;38621;52.830;6.914;2022-12-10T06:09:50;-1.90;99.90
52725;DHT22;38621;52.830;6.914;2022-12-10T06:12:16;-1.80;99.90
52725;DHT22;38621;52.830;6.914;2022-12-10T06:14:41;-1.80;99.90
52725;DHT22;38621;52.830;6.914;2022-12-10T06:17:07;-1.90;99.90
52725;DHT22;38621;52.830;6.914;2022-12-10T06:19:33;-1.80;99.90
52725;DHT22;38621;52.830;6.914;2022-12-10T06:21:58;-1.90;99.90
52725;DHT22;38621;52.830;6.914;2022-12-10T06:24:24;-1.80;99.90
52725;DHT22;38621;52.830;6.914;2022-12-10T06:26:50;-1.90;99.90
52725;DHT22;38621;52.830;6.914;2022-12-10T06:29:16;-1.90;99.90
52725;DHT22;38621;52.830;6.914;2022-12-10T06:31:43;-1.90;99.90
52725;DHT22;38621;52.830;6.914;2022-12-10T06:34:09;-1.80;99.90
52725;DHT22;38621;52.830;6.914;2022-12-10T06:36:35;-1.80;99.90
52725;DHT22;38621;52.830;6.914;2022-12-10T06:39:01;-2.40;99.90
52725;DHT22;38621;52.830;6.914;2022-12-10T06:41:26;-1.80;99.90
52725;DHT22;38621;52.830;6.914;2022-12-10T06:43:52;-1.80;99.90
52725;DHT22;38621;52.830;6.914;2022-12-10T06:46:19;-1.80;99.90
52725;DHT22;38621;52.830;6.914;2022-12-10T06:48:46;-1.80;99.90
52725;DHT22;38621;52.830;6.914;2022-12-10T06:51:12;-1.80;99.90
52725;DHT22;38621;52.830;6.914;2022-12-10T06:53:39;-1.90;99.90
52725;DHT22;38621;52.830;6.914;2022-12-10T06:56:06;-1.90;99.90
52725;DHT22;38621;52.830;6.914;2022-12-10T06:58:33;-1.80;99.90
52725;DHT22;38621;52.830;6.914;2022-12-10T07:01:08;-1.80;99.90
52725;DHT22;38621;52.830;6.914;2022-12-10T07:03:34;-1.80;99.90
52725;DHT22;38621;52.830;6.914;2022-12-10T07:06:00;-1.80;99.90
52725;DHT22;38621;52.830;6.914;2022-12-10T07:08:26;-1.80;99.90
52725;DHT22;38621;52.830;6.914;2022-12-10T07:10:53;-1.80;99.90
52725;DHT22;38621;52.830;6.914;2022-12-10T07:13:18;-1.80;99.90
52725;DHT22;38621;52.830;6.914;2022-12-10T07:15:44;-1.80;99.90
52725;DHT22;38621;52.830;6.914;2022-12-10T07:18:10;-1.80;99.90
52725;DHT22;38621;52.830;6.914;2022-12-10T07:20:36;-1.80;99.90
52725;DHT22;38621;52.830;6.914;2022-12-10T07:23:01;-1.80;99.90
52725;DHT22;38621;52.830;6.914;2022-12-10T07:25:27;-1.80;99.90
52725;DHT22;38621;52.830;6.914;2022-12-10T07:27:53;-1.80;99.90
52725;DHT22;38621;52.830;6.914;2022-12-10T07:30:18;-1.80;99.90
52725;DHT22;38621;52.830;6.914;2022-12-10T07:32:44;-1.80;99.90
52725;DHT22;38621;52.830;6.914;2022-12-10T07:35:10;-1.80;99.90
52725;DHT22;38621;52.830;6.914;2022-12-10T07:37:35;-1.80;99.90
52725;DHT22;38621;52.830;6.914;2022-12-10T07:40:01;-1.80;99.90
52725;DHT22;38621;52.830;6.914;2022-12-10T07:42:27;-1.80;99.90
52725;DHT22;38621;52.830;6.914;2022-12-10T07:44:52;-1.80;99.90
52725;DHT22;38621;52.830;6.914;2022-12-10T07:47:18;-1.80;99.90
52725;DHT22;38621;52.830;6.914;2022-12-10T07:49:45;-1.80;99.90
52725;DHT22;38621;52.830;6.914;2022-12-10T07:52:10;-1.80;99.90
52725;DHT22;38621;52.830;6.914;2022-12-10T07:54:36;-1.80;99.90
52725;DHT22;38621;52.830;6.914;2022-12-10T07:57:02;-1.80;99.90
52725;DHT22;38621;52.830;6.914;2022-12-10T07:59:28;-1.70;99.90
52725;DHT22;38621;52.830;6.914;2022-12-10T08:01:53;-1.70;99.90
52725;DHT22;38621;52.830;6.914;2022-12-10T08:04:19;-1.80;99.90
52725;DHT22;38621;52.830;6.914;2022-12-10T08:06:45;-1.70;99.90
52725;DHT22;38621;52.830;6.914;2022-12-10T08:09:10;-1.70;99.90
52725;DHT22;38621;52.830;6.914;2022-12-10T08:11:37;-1.70;99.90
52725;DHT22;38621;52.830;6.914;2022-12-10T08:14:03;-1.70;99.90
52725;DHT22;38621;52.830;6.914;2022-12-10T08:16:29;-1.60;99.90
52725;DHT22;38621;52.830;6.914;2022-12-10T08:18:58;-1.60;99.90
52725;DHT22;38621;52.830;6.914;2022-12-10T08:21:27;-1.50;99.90
52725;DHT22;38621;52.830;6.914;2022-12-10T08:23:54;-1.50;99.90
52725;DHT22;38621;52.830;6.914;2022-12-10T08:26:25;-1.40;99.90
52725;DHT22;38621;52.830;6.914;2022-12-10T08:28:51;-1.30;99.90
52725;DHT22;38621;52.830;6.914;2022-12-10T08:31:19;-1.30;99.90
52725;DHT22;38621;52.830;6.914;2022-12-10T08:33:45;-1.30;99.90
52725;DHT22;38621;52.830;6.914;2022-12-10T08:36:12;-1.30;99.90
52725;DHT22;38621;52.830;6.914;2022-12-10T08:38:39;-1.20;99.90
52725;DHT22;38621;52.830;6.914;2022-12-10T08:41:17;-1.20;99.90
52725;DHT22;38621;52.830;6.914;2022-12-10T08:43:43;-1.20;99.90
52725;DHT22;38621;52.830;6.914;2022-12-10T08:46:11;-1.20;99.90
52725;DHT22;38621;52.830;6.914;2022-12-10T08:48:37;-1.10;99.90
52725;DHT22;38621;52.830;6.914;2022-12-10T08:51:04;-1.00;99.90
52725;DHT22;38621;52.830;6.914;2022-12-10T08:53:30;-1.00;99.90
52725;DHT22;38621;52.830;6.914;2022-12-10T08:55:56;-0.90;99.90
52725;DHT22;38621;52.830;6.914;2022-12-10T08:58:21;-0.90;99.90
52725;DHT22;38621;52.830;6.914;2022-12-10T09:00:49;-0.90;99.90
52725;DHT22;38621;52.830;6.914;2022-12-10T09:03:15;-0.80;99.90
52725;DHT22;38621;52.830;6.914;2022-12-10T09:05:41;-0.80;99.90
52725;DHT22;38621;52.830;6.914;2022-12-10T09:08:07;-0.80;99.90
52725;DHT22;38621;52.830;6.914;2022-12-10T09:10:34;-0.70;99.90
52725;DHT22;38621;52.830;6.914;2022-12-10T09:13:00;-0.70;99.90
52725;DHT22;38621;52.830;6.914;2022-12-10T09:15:25;-0.70;99.90
52725;DHT22;38621;52.830;6.914;2022-12-10T09:17:51;-0.70;99.90
52725;DHT22;38621;52.830;6.914;2022-12-10T09:20:17;-0.60;99.90
52725;DHT22;38621;52.830;6.914;2022-12-10T09:22:43;-0.50;99.90
52725;DHT22;38621;52.830;6.914;2022-12-10T09:25:09;-0.50;99.90
52725;DHT22;38621;52.830;6.914;2022-12-10T09:27:41;-0.30;99.90
52725;DHT22;38621;52.830;6.914;2022-12-10T09:30:07;-0.20;99.90
52725;DHT22;38621;52.830;6.914;2022-12-10T09:32:33;-0.20;99.90
52725;DHT22;38621;52.830;6.914;2022-12-10T09:34:59;-0.20;99.90
52725;DHT22;38621;52.830;6.914;2022-12-10T09:37:25;-0.20;99.90
52725;DHT22;38621;52.830;6.914;2022-12-10T09:39:50;-0.10;99.90
52725;DHT22;38621;52.830;6.914;2022-12-10T09:42:44;-0.10;99.90
52725;DHT22;38621;52.830;6.914;2022-12-10T09:53:35;0.20;99.90
52725;DHT22;38621;52.830;6.914;2022-12-10T09:56:02;0.30;99.90
52725;DHT22;38621;52.830;6.914;2022-12-10T09:58:28;0.40;99.90
52725;DHT22;38621;52.830;6.914;2022-12-10T10:01:01;0.40;99.90
52725;DHT22;38621;52.830;6.914;2022-12-10T10:03:36;0.50;99.90
52725;DHT22;38621;52.830;6.914;2022-12-10T10:06:03;0.50;99.90
52725;DHT22;38621;52.830;6.914;2022-12-10T10:08:39;0.70;99.90
52725;DHT22;38621;52.830;6.914;2022-12-10T10:11:12;1.00;99.90
52725;DHT22;38621;52.830;6.914;2022-12-10T10:13:54;1.30;99.90
52725;DHT22;38621;52.830;6.914;2022-12-10T10:16:27;1.20;99.90
52725;DHT22;38621;52.830;6.914;2022-12-10T10:19:00;0.90;99.90
52725;DHT22;38621;52.830;6.914;2022-12-10T10:21:33;0.60;99.90
52725;DHT22;38621;52.830;6.914;2022-12-10T10:24:01;0.50;99.90
52725;DHT22;38621;52.830;6.914;2022-12-10T10:26:28;0.40;99.90
52725;DHT22;38621;52.830;6.914;2022-12-10T10:28:58;0.30;99.90
52725;DHT22;38621;52.830;6.914;2022-12-10T10:31:28;0.70;99.90
52725;DHT22;38621;52.830;6.914;2022-12-10T10:33:59;0.30;99.90
52725;DHT22;38621;52.830;6.914;2022-12-10T10:36:34;0.60;99.90
52725;DHT22;38621;52.830;6.914;2022-12-10T10:39:18;0.20;99.90
52725;DHT22;38621;52.830;6.914;2022-12-10T10:41:48;0.60;99.90
52725;DHT22;38621;52.830;6.914;2022-12-10T10:44:19;1.00;99.90
52725;DHT22;38621;52.830;6.914;2022-12-10T10:46:48;1.20;99.90
52725;DHT22;38621;52.830;6.914;2022-12-10T10:49:24;1.10;99.90
52725;DHT22;38621;52.830;6.914;2022-12-10T10:52:04;1.10;99.90
52725;DHT22;38621;52.830;6.914;2022-12-10T10:54:41;0.90;99.90
52725;DHT22;38621;52.830;6.914;2022-12-10T10:57:33;0.70;99.90
52725;DHT22;38621;52.830;6.914;2022-12-10T11:00:20;0.50;99.90
52725;DHT22;38621;52.830;6.914;2022-12-10T11:02:48;0.40;99.90
52725;DHT22;38621;52.830;6.914;2022-12-10T11:05:26;0.20;99.90
52725;DHT22;38621;52.830;6.914;2022-12-10T11:08:04;0.10;99.90
52725;DHT22;38621;52.830;6.914;2022-12-10T11:10:30;0.10;99.90
52725;DHT22;38621;52.830;6.914;2022-12-10T11:15:40;0.00;99.90
52725;DHT22;38621;52.830;6.914;2022-12-10T11:18:32;-0.10;99.90
52725;DHT22;38621;52.830;6.914;2022-12-10T11:21:04;-0.20;99.90
52725;DHT22;38621;52.830;6.914;2022-12-10T11:23:36;-0.20;99.90
52725;DHT22;38621;52.830;6.914;2022-12-10T11:26:21;-0.20;99.90
52725;DHT22;38621;52.830;6.914;2022-12-10T11:45:50;-0.10;99.90
52725;DHT22;38621;52.830;6.914;2022-12-10T11:48:44;-0.10;99.90
52725;DHT22;38621;52.830;6.914;2022-12-10T11:59:56;-0.30;99.90
52725;DHT22;38621;52.830;6.914;2022-12-10T12:05:22;-0.30;99.90
52725;DHT22;38621;52.830;6.914;2022-12-10T12:13:16;-0.10;99.90
52725;DHT22;38621;52.830;6.914;2022-12-10T12:15:46;-0.40;99.90
52725;DHT22;38621;52.830;6.914;2022-12-10T12:18:21;-0.30;99.90
52725;DHT22;38621;52.830;6.914;2022-12-10T12:20:55;-0.50;99.90
52725;DHT22;38621;52.830;6.914;2022-12-10T12:26:10;-0.50;99.90
52725;DHT22;38621;52.830;6.914;2022-12-10T12:31:41;-0.40;99.90
52725;DHT22;38621;52.830;6.914;2022-12-10T12:36:55;-0.50;99.90
52725;DHT22;38621;52.830;6.914;2022-12-10T12:39:32;-0.50;99.90
52725;DHT22;38621;52.830;6.914;2022-12-10T12:42:31;-0.50;99.90
52725;DHT22;38621;52.830;6.914;2022-12-10T12:45:21;-0.50;99.90
52725;DHT22;38621;52.830;6.914;2022-12-10T12:50:57;-0.60;99.90
52725;DHT22;38621;52.830;6.914;2022-12-10T12:53:16;-0.70;99.90
52725;DHT22;38621;52.830;6.914;2022-12-10T12:56:05;-0.70;99.90
52725;DHT22;38621;52.830;6.914;2022-12-10T12:58:54;-0.70;99.90
52725;DHT22;38621;52.830;6.914;2022-12-10T13:01:43;-0.70;99.90
52725;DHT22;38621;52.830;6.914;2022-12-10T13:04:13;-0.80;99.90
52725;DHT22;38621;52.830;6.914;2022-12-10T13:06:40;-0.80;99.90
52725;DHT22;38621;52.830;6.914;2022-12-10T13:14:31;-0.80;99.90
52725;DHT22;38621;52.830;6.914;2022-12-10T13:23:00;-0.80;99.90
52725;DHT22;38621;52.830;6.914;2022-12-10T13:28:50;-0.80;99.90
52725;DHT22;38621;52.830;6.914;2022-12-10T13:39:34;-0.80;99.90
52725;DHT22;38621;52.830;6.914;2022-12-10T13:47:49;-0.70;99.90
52725;DHT22;38621;52.830;6.914;2022-12-10T13:50:17;-0.70;99.90
52725;DHT22;38621;52.830;6.914;2022-12-10T13:53:12;0.50;99.90
52725;DHT22;38621;52.830;6.914;2022-12-10T14:04:27;-0.60;99.90
52725;DHT22;38621;52.830;6.914;2022-12-10T14:06:55;-0.60;99.90
52725;DHT22;38621;52.830;6.914;2022-12-10T14:09:29;-0.60;99.90
52725;DHT22;38621;52.830;6.914;2022-12-10T14:11:59;-0.60;99.90
52725;DHT22;38621;52.830;6.914;2022-12-10T14:17:02;-0.60;99.90
52725;DHT22;38621;52.830;6.914;2022-12-10T14:19:29;-0.60;99.90
52725;DHT22;38621;52.830;6.914;2022-12-10T14:21:55;-0.70;99.90
52725;DHT22;38621;52.830;6.914;2022-12-10T14:24:32;-0.70;99.90
52725;DHT22;38621;52.830;6.914;2022-12-10T14:27:10;-0.70;99.90
52725;DHT22;38621;52.830;6.914;2022-12-10T14:29:36;-0.80;99.90
52725;DHT22;38621;52.830;6.914;2022-12-10T14:32:02;-0.80;99.90
52725;DHT22;38621;52.830;6.914;2022-12-10T14:34:28;-0.70;99.90
52725;DHT22;38621;52.830;6.914;2022-12-10T14:37:01;-0.80;99.90
52725;DHT22;38621;52.830;6.914;2022-12-10T14:39:31;-0.80;99.90
52725;DHT22;38621;52.830;6.914;2022-12-10T14:42:01;-0.80;99.90
52725;DHT22;38621;52.830;6.914;2022-12-10T14:44:28;-0.80;99.90
52725;DHT22;38621;52.830;6.914;2022-12-10T14:47:09;-0.80;99.90
52725;DHT22;38621;52.830;6.914;2022-12-10T14:49:40;-0.80;99.90
52725;DHT22;38621;52.830;6.914;2022-12-10T14:52:12;-0.80;99.90
52725;DHT22;38621;52.830;6.914;2022-12-10T14:54:39;-0.90;99.90
52725;DHT22;38621;52.830;6.914;2022-12-10T14:57:08;-0.90;99.90
52725;DHT22;38621;52.830;6.914;2022-12-10T14:59:50;-0.90;99.90
52725;DHT22;38621;52.830;6.914;2022-12-10T15:02:33;-0.90;99.90
52725;DHT22;38621;52.830;6.914;2022-12-10T15:04:59;-0.90;99.90
52725;DHT22;38621;52.830;6.914;2022-12-10T15:07:31;-0.90;99.90
52725;DHT22;38621;52.830;6.914;2022-12-10T15:10:02;-0.90;99.90
52725;DHT22;38621;52.830;6.914;2022-12-10T15:12:37;-0.70;99.90
52725;DHT22;38621;52.830;6.914;2022-12-10T15:20:48;-0.80;99.90
52725;DHT22;38621;52.830;6.914;2022-12-10T15:28:41;-0.80;99.90
52725;DHT22;38621;52.830;6.914;2022-12-10T15:31:21;-0.90;99.90
52725;DHT22;38621;52.830;6.914;2022-12-10T15:36:41;-0.90;99.90
52725;DHT22;38621;52.830;6.914;2022-12-10T15:41:51;-0.90;99.90
52725;DHT22;38621;52.830;6.914;2022-12-10T15:49:34;-1.00;99.90
52725;DHT22;38621;52.830;6.914;2022-12-10T15:52:00;-1.00;99.90
52725;DHT22;38621;52.830;6.914;2022-12-10T15:54:37;-1.00;99.90
52725;DHT22;38621;52.830;6.914;2022-12-10T15:59:40;-0.90;99.90
52725;DHT22;38621;52.830;6.914;2022-12-10T16:04:53;-1.10;99.90
52725;DHT22;38621;52.830;6.914;2022-12-10T16:07:19;-1.10;99.90
52725;DHT22;38621;52.830;6.914;2022-12-10T16:09:45;-1.10;99.90
52725;DHT22;38621;52.830;6.914;2022-12-10T16:12:13;-1.10;99.90
52725;DHT22;38621;52.830;6.914;2022-12-10T16:14:43;-1.10;99.90
52725;DHT22;38621;52.830;6.914;2022-12-10T16:17:12;-1.10;99.90
52725;DHT22;38621;52.830;6.914;2022-12-10T16:19:38;-1.10;99.90
52725;DHT22;38621;52.830;6.914;2022-12-10T16:22:05;-1.10;99.90
52725;DHT22;38621;52.830;6.914;2022-12-10T16:24:30;-1.10;99.90
52725;DHT22;38621;52.830;6.914;2022-12-10T16:26:56;-1.10;99.90
52725;DHT22;38621;52.830;6.914;2022-12-10T16:29:22;-0.90;99.90
52725;DHT22;38621;52.830;6.914;2022-12-10T16:31:49;-1.10;99.90
52725;DHT22;38621;52.830;6.914;2022-12-10T16:34:14;-1.10;99.90
52725;DHT22;38621;52.830;6.914;2022-12-10T16:36:40;-1.20;99.90
52725;DHT22;38621;52.830;6.914;2022-12-10T16:39:06;-1.10;99.90
52725;DHT22;38621;52.830;6.914;2022-12-10T16:41:32;-1.00;99.90
52725;DHT22;38621;52.830;6.914;2022-12-10T16:43:58;-1.00;99.90
52725;DHT22;38621;52.830;6.914;2022-12-10T16:46:24;-1.00;99.90
52725;DHT22;38621;52.830;6.914;2022-12-10T16:48:49;-1.00;99.90
52725;DHT22;38621;52.830;6.914;2022-12-10T16:51:23;-1.00;99.90
52725;DHT22;38621;52.830;6.914;2022-12-10T16:53:49;-1.00;99.90
52725;DHT22;38621;52.830;6.914;2022-12-10T16:56:16;-1.00;99.90
52725;DHT22;38621;52.830;6.914;2022-12-10T16:58:43;-1.00;99.90
52725;DHT22;38621;52.830;6.914;2022-12-10T17:01:16;-1.00;99.90
52725;DHT22;38621;52.830;6.914;2022-12-10T17:03:43;-1.00;99.90
52725;DHT22;38621;52.830;6.914;2022-12-10T17:06:09;-1.00;99.90
52725;DHT22;38621;52.830;6.914;2022-12-10T17:08:36;-1.00;99.90
52725;DHT22;38621;52.830;6.914;2022-12-10T17:11:26;-1.10;99.90
52725;DHT22;38621;52.830;6.914;2022-12-10T17:14:36;-1.10;99.90
52725;DHT22;38621;52.830;6.914;2022-12-10T17:17:03;-1.10;99.90
52725;DHT22;38621;52.830;6.914;2022-12-10T17:19:37;-1.10;99.90
52725;DHT22;38621;52.830;6.914;2022-12-10T17:22:04;-1.10;99.90
52725;DHT22;38621;52.830;6.914;2022-12-10T17:24:30;-1.10;99.90
52725;DHT22;38621;52.830;6.914;2022-12-10T17:27:03;-0.90;99.90
52725;DHT22;38621;52.830;6.914;2022-12-10T17:29:35;-1.20;99.90
52725;DHT22;38621;52.830;6.914;2022-12-10T17:32:03;-1.20;99.90
52725;DHT22;38621;52.830;6.914;2022-12-10T17:34:29;-1.20;99.90
52725;DHT22;38621;52.830;6.914;2022-12-10T17:36:55;-1.20;99.90
52725;DHT22;38621;52.830;6.914;2022-12-10T17:39:21;-1.20;99.90
52725;DHT22;38621;52.830;6.914;2022-12-10T17:41:51;-1.20;99.90
52725;DHT22;38621;52.830;6.914;2022-12-10T17:44:17;-1.30;99.90
52725;DHT22;38621;52.830;6.914;2022-12-10T17:46:43;-1.30;99.90
52725;DHT22;38621;52.830;6.914;2022-12-10T17:49:13;-1.20;99.90
52725;DHT22;38621;52.830;6.914;2022-12-10T17:51:39;-1.30;99.90
52725;DHT22;38621;52.830;6.914;2022-12-10T17:54:06;-1.30;99.90
52725;DHT22;38621;52.830;6.914;2022-12-10T17:56:32;-1.30;99.90
52725;DHT22;38621;52.830;6.914;2022-12-10T17:58:57;-1.30;99.90
52725;DHT22;38621;52.830;6.914;2022-12-10T18:01:24;-1.30;99.90
52725;DHT22;38621;52.830;6.914;2022-12-10T18:03:52;-1.20;99.90
52725;DHT22;38621;52.830;6.914;2022-12-10T18:06:23;-1.30;99.90